Time;durP1;ratioP1;P1;durP2;ratioP2;P2;SDS_P1;SDS_P2;PMS_P1;PMS_P2;Temp;Humidity;BMP_temperature;BMP_pressure;BME280_temperature;BME280_humidity;BME280_pressure;Samples;Min_cycle;Max_cycle;Signal;HPM_P1;HPM_P2
2021/10/12 00:01:01;;;;;;;2.40;0.98;;;9.20;99.90;;;;;;5027509;28;20082;-72
2021/10/12 00:03:26;;;;;;;2.03;1.15;;;9.20;99.90;;;;;;5027449;28;20026;-73
2021/10/12 00:05:52;;;;;;;2.28;1.45;;;9.10;99.90;;;;;;5027773;28;20037;-74
2021/10/12 00:08:17;;;;;;;3.88;1.05;;;9.10;99.90;;;;;;5027672;28;20046;-75
2021/10/12 00:10:43;;;;;;;3.33;1.23;;;9.10;99.90;;;;;;5027462;28;20040;-73
2021/10/12 00:13:09;;;;;;;7.65;1.10;;;9.10;99.90;;;;;;5027554;28;20046;-74
2021/10/12 00:15:35;;;;;;;6.28;0.73;;;9.10;99.90;;;;;;5026982;28;20030;-71
2021/10/12 00:18:00;;;;;;;7.53;0.82;;;9.00;99.90;;;;;;5027207;28;20025;-72
2021/10/12 00:20:26;;;;;;;0.80;0.50;;;9.00;99.90;;;;;;5027222;28;20034;-75
2021/10/12 00:22:52;;;;;;;3.60;0.95;;;9.00;99.90;;;;;;5025847;28;20033;-74
2021/10/12 00:25:18;;;;;;;3.70;0.70;;;9.00;99.90;;;;;;5027414;28;20485;-74
2021/10/12 00:27:44;;;;;;;1.05;0.70;;;9.00;99.90;;;;;;5027526;28;20490;-74
2021/10/12 00:30:10;;;;;;;2.85;0.90;;;9.00;99.90;;;;;;5026679;28;20030;-73
2021/10/12 00:32:36;;;;;;;3.55;0.77;;;9.00;99.90;;;;;;5026940;28;20053;-73
2021/10/12 00:35:02;;;;;;;4.25;0.80;;;9.00;99.90;;;;;;5025607;28;20022;-73
2021/10/12 00:37:28;;;;;;;4.78;1.13;;;9.00;99.90;;;;;;5026326;28;20112;-73
2021/10/12 00:39:54;;;;;;;1.75;0.80;;;9.00;99.90;;;;;;5025736;28;20030;-73
2021/10/12 00:42:20;;;;;;;3.08;0.63;;;9.10;99.90;;;;;;5027047;28;20034;-77
2021/10/12 00:44:45;;;;;;;2.05;0.77;;;9.10;99.90;;;;;;5026633;28;20029;-73
2021/10/12 00:47:11;;;;;;;2.45;0.82;;;9.10;99.90;;;;;;5026404;28;20406;-74
2021/10/12 00:49:37;;;;;;;4.68;0.73;;;9.10;99.90;;;;;;5026964;28;20061;-73
2021/10/12 00:52:03;;;;;;;2.80;0.65;;;9.20;99.90;;;;;;5026389;28;20030;-72
2021/10/12 00:54:28;;;;;;;4.05;0.90;;;9.20;99.90;;;;;;5026639;28;20497;-72
2021/10/12 00:56:54;;;;;;;1.08;0.82;;;9.20;99.90;;;;;;5025447;28;20085;-72
2021/10/12 00:59:20;;;;;;;2.33;0.98;;;9.30;99.90;;;;;;5026077;28;20026;-73
2021/10/12 01:01:46;;;;;;;1.00;0.65;;;9.30;99.90;;;;;;5026727;28;20026;-72
2021/10/12 01:04:11;;;;;;;5.35;1.52;;;9.30;99.90;;;;;;5026639;28;20042;-73
2021/10/12 01:06:38;;;;;;;4.05;0.95;;;9.30;99.90;;;;;;5025943;28;20050;-72
2021/10/12 01:09:04;;;;;;;3.53;0.95;;;9.30;99.90;;;;;;5026359;28;20022;-74
2021/10/12 01:11:32;;;;;;;1.48;0.60;;;9.40;99.90;;;;;;5024048;28;20029;-74
2021/10/12 01:13:59;;;;;;;1.55;0.85;;;9.40;99.90;;;;;;5025870;28;20049;-74
2021/10/12 01:16:24;;;;;;;1.67;0.70;;;9.40;99.90;;;;;;5024718;28;20055;-73
2021/10/12 01:19:03;;;;;;;2.65;0.98;;;9.40;99.90;;;;;;5026271;28;20048;-73
2021/10/12 01:21:30;;;;;;;8.50;0.65;;;9.40;99.90;;;;;;5024684;28;20430;-75
2021/10/12 01:23:57;;;;;;;10.95;1.13;;;9.40;99.90;;;;;;5026026;28;20086;-74
2021/10/12 01:26:24;;;;;;;4.43;1.08;;;9.40;99.90;;;;;;5024626;28;20390;-76
2021/10/12 01:28:49;;;;;;;1.48;0.68;;;9.40;99.90;;;;;;5024494;28;20030;-75
2021/10/12 01:31:27;;;;;;;5.85;1.15;;;9.40;99.90;;;;;;5024388;28;20054;-75
2021/10/12 01:33:53;;;;;;;2.97;0.90;;;9.40;99.90;;;;;;5025591;28;20076;-75
2021/10/12 01:36:19;;;;;;;2.78;0.60;;;9.40;99.90;;;;;;5025781;28;20021;-75
2021/10/12 01:38:45;;;;;;;6.18;1.38;;;9.40;99.90;;;;;;5024615;28;20034;-75
2021/10/12 01:41:11;;;;;;;2.05;1.00;;;9.40;99.90;;;;;;5025290;28;20030;-73
2021/10/12 01:43:37;;;;;;;7.82;1.00;;;9.40;99.90;;;;;;5025560;28;20072;-73
2021/10/12 01:46:04;;;;;;;10.65;1.23;;;9.40;99.90;;;;;;5024161;28;20030;-73
2021/10/12 01:48:31;;;;;;;8.88;1.05;;;9.40;99.90;;;;;;5025141;28;20038;-76
2021/10/12 01:50:58;;;;;;;5.72;0.63;;;9.50;99.90;;;;;;5025637;28;20084;-73
2021/10/12 01:53:23;;;;;;;1.27;0.40;;;9.50;99.90;;;;;;5025416;28;20105;-75
2021/10/12 01:55:49;;;;;;;2.67;0.90;;;9.50;99.90;;;;;;5023924;28;20064;-75
2021/10/12 01:58:16;;;;;;;6.43;0.95;;;9.50;99.90;;;;;;5025901;28;20025;-74
2021/10/12 02:00:42;;;;;;;4.20;0.70;;;9.50;99.90;;;;;;5022564;28;20166;-74
2021/10/12 02:03:08;;;;;;;3.40;1.08;;;9.50;99.90;;;;;;5023736;28;20033;-73
2021/10/12 02:05:34;;;;;;;4.82;0.98;;;9.50;99.90;;;;;;5025382;28;20037;-74
2021/10/12 02:07:59;;;;;;;3.25;0.80;;;9.50;99.90;;;;;;5025100;28;20046;-74
2021/10/12 02:10:25;;;;;;;1.20;0.52;;;9.50;99.90;;;;;;5023717;28;20026;-74
2021/10/12 02:12:51;;;;;;;4.22;1.10;;;9.60;99.90;;;;;;5023633;28;20030;-73
2021/10/12 02:15:17;;;;;;;3.78;1.25;;;9.60;99.90;;;;;;5025039;28;20026;-73
2021/10/12 02:17:44;;;;;;;6.18;0.80;;;9.60;99.90;;;;;;5024906;28;20381;-73
2021/10/12 02:20:10;;;;;;;5.13;1.40;;;9.60;99.90;;;;;;5023979;28;20084;-74
2021/10/12 02:22:37;;;;;;;0.93;0.65;;;9.50;99.90;;;;;;5024572;28;20036;-73
2021/10/12 02:25:04;;;;;;;5.47;1.00;;;9.60;99.90;;;;;;5023892;28;20050;-74
2021/10/12 02:27:30;;;;;;;2.17;1.08;;;9.60;99.90;;;;;;5023612;28;20030;-72
2021/10/12 02:29:56;;;;;;;2.20;0.90;;;9.60;99.90;;;;;;5023919;28;20034;-74
2021/10/12 02:32:22;;;;;;;9.32;1.33;;;9.60;99.90;;;;;;5024138;28;20052;-73
2021/10/12 02:34:47;;;;;;;1.42;0.70;;;9.60;99.90;;;;;;5025177;28;20080;-74
2021/10/12 02:37:13;;;;;;;4.30;1.42;;;9.60;99.90;;;;;;5024649;28;20052;-71
2021/10/12 02:39:39;;;;;;;8.50;1.60;;;9.60;99.90;;;;;;5023985;28;20040;-74
2021/10/12 02:42:05;;;;;;;2.58;0.80;;;9.60;99.90;;;;;;5023466;28;20049;-74
2021/10/12 02:44:34;;;;;;;19.65;1.70;;;9.60;99.90;;;;;;5024418;28;20486;-74
2021/10/12 02:46:59;;;;;;;2.22;0.75;;;9.60;99.90;;;;;;5024429;28;20437;-74
2021/10/12 02:49:25;;;;;;;1.25;0.73;;;9.60;99.90;;;;;;5024892;28;20048;-75
2021/10/12 02:51:51;;;;;;;4.18;0.95;;;9.50;99.90;;;;;;5024374;28;20030;-77
2021/10/12 02:54:17;;;;;;;4.97;1.02;;;9.50;99.90;;;;;;5024588;28;20065;-76
2021/10/12 02:56:42;;;;;;;0.32;0.32;;;9.40;99.90;;;;;;5023622;28;20069;-74
2021/10/12 02:59:08;;;;;;;4.72;1.02;;;9.40;99.90;;;;;;5022909;28;20037;-75
2021/10/12 03:01:33;;;;;;;1.45;0.40;;;9.40;99.90;;;;;;5024567;28;20109;-75
2021/10/12 03:03:59;;;;;;;1.48;0.45;;;9.30;99.90;;;;;;5024595;28;20026;-75
2021/10/12 03:06:25;;;;;;;6.13;0.65;;;9.20;99.90;;;;;;5024161;28;20033;-74
2021/10/12 03:08:51;;;;;;;0.88;0.30;;;9.30;99.90;;;;;;5024526;28;20037;-75
2021/10/12 03:11:17;;;;;;;0.30;0.28;;;9.20;99.90;;;;;;5022236;28;20045;-75
2021/10/12 03:13:43;;;;;;;0.73;0.22;;;9.20;99.90;;;;;;5022651;28;20085;-75
2021/10/12 03:16:09;;;;;;;1.50;0.32;;;9.20;99.90;;;;;;5023732;28;20030;-76
2021/10/12 03:18:36;;;;;;;1.25;0.15;;;9.20;99.90;;;;;;5024547;28;20034;-74
2021/10/12 03:21:02;;;;;;;2.30;0.10;;;9.20;99.90;;;;;;5022133;28;20332;-76
2021/10/12 03:23:28;;;;;;;0.10;0.00;;;9.20;99.90;;;;;;5021208;28;20041;-76
2021/10/12 03:25:54;;;;;;;0.98;0.52;;;9.20;99.90;;;;;;5023853;28;20022;-74
2021/10/12 03:28:20;;;;;;;2.17;0.15;;;9.20;99.90;;;;;;5020327;28;20030;-75
2021/10/12 03:30:45;;;;;;;0.65;0.47;;;9.20;99.90;;;;;;5020715;28;20052;-74
2021/10/12 03:33:14;;;;;;;0.00;0.00;;;9.20;99.90;;;;;;5024689;28;20033;-74
2021/10/12 03:35:45;;;;;;;1.17;0.35;;;9.20;99.90;;;;;;5028193;28;20026;-76
2021/10/12 03:38:11;;;;;;;0.00;0.00;;;9.10;99.90;;;;;;5026614;28;20049;-75
2021/10/12 03:40:37;;;;;;;0.08;0.00;;;9.10;99.90;;;;;;5027807;28;20069;-75
2021/10/12 03:43:02;;;;;;;0.85;0.00;;;9.20;99.90;;;;;;5027989;28;20030;-75
2021/10/12 03:45:28;;;;;;;0.10;0.10;;;9.10;99.90;;;;;;5028020;28;20030;-75
2021/10/12 03:47:53;;;;;;;0.17;0.10;;;9.10;99.90;;;;;;5025826;28;20042;-78
2021/10/12 03:50:19;;;;;;;0.25;0.03;;;9.10;99.90;;;;;;5026650;28;20037;-76
2021/10/12 03:52:46;;;;;;;0.20;0.10;;;9.10;99.90;;;;;;5027973;28;20034;-77
2021/10/12 03:55:12;;;;;;;0.17;0.00;;;9.10;99.90;;;;;;5027847;28;20057;-75
2021/10/12 03:57:38;;;;;;;0.25;0.10;;;9.10;99.90;;;;;;5026499;28;20030;-74
2021/10/12 04:00:05;;;;;;;0.20;0.10;;;9.20;99.90;;;;;;5027660;28;20022;-75
2021/10/12 04:02:31;;;;;;;0.00;0.00;;;9.20;99.90;;;;;;5027313;28;20382;-75
2021/10/12 04:04:56;;;;;;;4.38;0.57;;;9.20;99.90;;;;;;5027638;28;20022;-74
2021/10/12 04:07:22;;;;;;;3.67;1.27;;;9.20;99.90;;;;;;5027185;28;20390;-74
2021/10/12 04:09:48;;;;;;;0.77;0.40;;;9.20;99.90;;;;;;5027721;28;20026;-75
2021/10/12 04:12:14;;;;;;;5.00;0.57;;;9.20;99.90;;;;;;5027496;28;20033;-75
2021/10/12 04:14:40;;;;;;;13.18;0.93;;;9.20;99.90;;;;;;5025583;28;20549;-74
2021/10/12 04:17:06;;;;;;;1.50;0.60;;;9.30;99.90;;;;;;5027385;28;20028;-75
2021/10/12 04:19:32;;;;;;;1.75;0.40;;;9.30;99.90;;;;;;5025731;28;20059;-74
2021/10/12 04:21:57;;;;;;;3.03;0.28;;;9.30;99.90;;;;;;5025787;28;20045;-74
2021/10/12 04:24:23;;;;;;;1.58;0.60;;;9.30;99.90;;;;;;5023528;28;20037;-74
2021/10/12 04:26:49;;;;;;;2.05;0.43;;;9.30;99.90;;;;;;5026630;28;20038;-75
2021/10/12 04:29:14;;;;;;;4.13;0.90;;;9.40;99.90;;;;;;5027238;28;20026;-74
2021/10/12 04:31:41;;;;;;;0.30;0.30;;;9.40;99.90;;;;;;5025620;28;20057;-72
2021/10/12 04:34:06;;;;;;;2.10;0.52;;;9.30;99.90;;;;;;5027079;28;20057;-74
2021/10/12 04:36:32;;;;;;;9.40;1.10;;;9.40;99.90;;;;;;5025338;28;20026;-74
2021/10/12 04:38:57;;;;;;;2.17;0.82;;;9.40;99.90;;;;;;5025831;28;20053;-74
2021/10/12 04:41:23;;;;;;;0.95;0.50;;;9.40;99.90;;;;;;5026366;28;20037;-76
2021/10/12 04:43:48;;;;;;;3.92;0.85;;;9.40;99.90;;;;;;5026582;28;20034;-76
2021/10/12 04:46:15;;;;;;;8.40;1.08;;;9.40;99.90;;;;;;5026883;28;20087;-75
2021/10/12 04:48:41;;;;;;;1.25;0.57;;;9.40;99.90;;;;;;5025390;28;20417;-75
2021/10/12 04:51:07;;;;;;;3.13;0.98;;;9.50;99.90;;;;;;5026659;28;20474;-74
2021/10/12 04:53:32;;;;;;;4.30;1.05;;;9.40;99.90;;;;;;5025233;28;20033;-74
2021/10/12 04:55:58;;;;;;;1.65;0.75;;;9.50;99.90;;;;;;5027013;28;20065;-74
2021/10/12 04:58:23;;;;;;;4.05;0.95;;;9.50;99.90;;;;;;5026339;28;20029;-74
2021/10/12 05:00:49;;;;;;;1.77;0.60;;;9.40;99.90;;;;;;5026694;28;20029;-74
2021/10/12 05:03:16;;;;;;;2.17;0.55;;;9.40;99.90;;;;;;5025284;28;20025;-76
2021/10/12 05:05:42;;;;;;;0.52;0.40;;;9.40;99.90;;;;;;5026612;28;20022;-74
2021/10/12 05:08:07;;;;;;;1.48;0.85;;;9.50;99.90;;;;;;5026105;28;20109;-74
2021/10/12 05:10:33;;;;;;;2.30;1.02;;;9.50;99.90;;;;;;5026212;28;20036;-74
2021/10/12 05:12:59;;;;;;;0.30;0.20;;;9.40;99.90;;;;;;5025889;28;20080;-74
2021/10/12 05:15:27;;;;;;;1.90;0.45;;;9.40;99.90;;;;;;5025567;28;20032;-77
2021/10/12 05:17:53;;;;;;;0.82;0.65;;;9.40;99.90;;;;;;5025873;28;20034;-76
2021/10/12 05:20:19;;;;;;;1.38;0.73;;;9.40;99.90;;;;;;5024776;28;20030;-75
2021/10/12 05:22:47;;;;;;;3.92;0.70;;;9.50;99.90;;;;;;5025561;28;20025;-76
2021/10/12 05:25:13;;;;;;;2.65;0.85;;;9.40;99.90;;;;;;5019143;28;20034;-78
2021/10/12 05:27:39;;;;;;;1.38;0.73;;;9.40;99.90;;;;;;5025913;28;20046;-78
2021/10/12 05:30:07;;;;;;;0.73;0.38;;;9.40;99.90;;;;;;5026170;28;20390;-76
2021/10/12 05:32:35;;;;;;;1.00;0.40;;;9.40;99.90;;;;;;5024751;28;20821;-75
2021/10/12 05:35:02;;;;;;;1.77;0.25;;;9.40;99.90;;;;;;5022397;28;20073;-76
2021/10/12 05:37:28;;;;;;;1.02;0.50;;;9.40;99.90;;;;;;5026176;28;20033;-76
2021/10/12 05:39:56;;;;;;;2.35;0.98;;;9.50;99.90;;;;;;5025678;28;20030;-78
2021/10/12 05:42:22;;;;;;;0.50;0.25;;;9.40;99.90;;;;;;5026188;28;20082;-74
2021/10/12 05:44:48;;;;;;;1.42;0.60;;;9.50;99.90;;;;;;5025969;28;20041;-74
2021/10/12 05:47:17;;;;;;;1.75;0.77;;;9.40;99.90;;;;;;5023531;28;20060;-79
2021/10/12 05:49:42;;;;;;;1.65;0.45;;;9.50;99.90;;;;;;5024008;28;20057;-74
2021/10/12 05:52:15;;;;;;;5.38;0.47;;;9.50;99.90;;;;;;5023772;28;20030;-77
2021/10/12 05:54:49;;;;;;;0.93;0.47;;;9.50;99.90;;;;;;5023224;28;20405;-77
2021/10/12 05:57:34;;;;;;;3.17;1.30;;;9.50;99.90;;;;;;5022611;28;20466;-77
2021/10/12 06:00:00;;;;;;;2.60;0.98;;;9.50;99.90;;;;;;5024199;28;20783;-76
2021/10/12 06:02:26;;;;;;;2.28;0.95;;;9.50;99.90;;;;;;5024575;28;20018;-76
2021/10/12 06:04:51;;;;;;;4.97;1.13;;;9.50;99.90;;;;;;5023017;28;20096;-77
2021/10/12 06:07:17;;;;;;;1.67;1.13;;;9.50;99.90;;;;;;5023947;28;20038;-74
2021/10/12 06:09:42;;;;;;;1.90;0.65;;;9.50;99.90;;;;;;5019643;28;20073;-76
2021/10/12 06:12:08;;;;;;;5.60;0.98;;;9.50;99.90;;;;;;5019578;28;20065;-77
2021/10/12 06:14:33;;;;;;;1.58;0.85;;;9.50;99.90;;;;;;5019097;28;20038;-75
2021/10/12 06:16:59;;;;;;;2.97;1.17;;;9.50;99.90;;;;;;5007847;28;20033;-75
2021/10/12 06:19:24;;;;;;;2.25;0.60;;;9.50;99.90;;;;;;5014015;28;20026;-76
2021/10/12 06:21:54;;;;;;;0.82;0.47;;;9.50;99.90;;;;;;5023282;28;20046;-77
2021/10/12 06:24:19;;;;;;;1.55;0.70;;;9.50;99.90;;;;;;5024514;28;20033;-77
2021/10/12 06:26:45;;;;;;;2.45;1.45;;;9.50;99.90;;;;;;5016731;28;20042;-77
2021/10/12 06:29:11;;;;;;;1.95;1.10;;;9.60;99.90;;;;;;5005138;28;20027;-75
2021/10/12 06:31:37;;;;;;;0.88;0.60;;;9.60;99.90;;;;;;5005475;28;20060;-75
2021/10/12 06:34:03;;;;;;;2.15;1.00;;;9.60;99.90;;;;;;5022290;28;20030;-77
2021/10/12 06:36:30;;;;;;;4.35;0.90;;;9.60;99.90;;;;;;5023840;28;20130;-75
2021/10/12 06:38:56;;;;;;;1.85;0.73;;;9.60;99.90;;;;;;5024797;28;20018;-75
2021/10/12 06:41:21;;;;;;;1.48;0.70;;;9.60;99.90;;;;;;5020545;28;20032;-74
2021/10/12 06:43:47;;;;;;;0.85;0.52;;;9.70;99.90;;;;;;5020169;28;20068;-77
2021/10/12 06:46:14;;;;;;;2.85;0.80;;;9.60;99.90;;;;;;5021166;28;20419;-77
2021/10/12 06:48:40;;;;;;;1.48;0.75;;;9.70;99.90;;;;;;5021817;28;20071;-76
2021/10/12 06:51:05;;;;;;;5.63;0.90;;;9.70;99.90;;;;;;5023474;28;20022;-73
2021/10/12 06:53:31;;;;;;;3.72;1.02;;;9.70;99.90;;;;;;5023318;28;20034;-73
2021/10/12 06:55:56;;;;;;;2.22;1.10;;;9.80;99.90;;;;;;5024232;28;20036;-74
2021/10/12 06:58:22;;;;;;;7.72;1.20;;;9.80;99.90;;;;;;5023654;28;20466;-75
2021/10/12 07:00:48;;;;;;;5.00;1.05;;;9.80;99.90;;;;;;5023647;28;20053;-75
2021/10/12 07:03:14;;;;;;;0.75;0.40;;;9.90;99.90;;;;;;5024672;28;20026;-75
2021/10/12 07:05:46;;;;;;;1.15;0.73;;;9.90;99.90;;;;;;5025187;28;20129;-75
2021/10/12 07:08:12;;;;;;;4.70;1.00;;;10.00;99.90;;;;;;5025156;28;20061;-76
2021/10/12 07:10:38;;;;;;;0.95;0.50;;;10.00;99.90;;;;;;5028087;28;20080;-76
2021/10/12 07:13:03;;;;;;;0.20;0.20;;;10.10;99.90;;;;;;5028724;28;20037;-75
2021/10/12 07:15:29;;;;;;;9.15;0.93;;;10.20;99.90;;;;;;5027106;28;20026;-74
2021/10/12 07:17:54;;;;;;;3.03;1.05;;;10.30;99.90;;;;;;5027139;28;20029;-74
2021/10/12 07:20:20;;;;;;;0.55;0.38;;;10.40;99.90;;;;;;5028401;28;20033;-73
2021/10/12 07:22:47;;;;;;;5.03;0.98;;;10.50;99.90;;;;;;5027363;28;20158;-74
2021/10/12 07:25:12;;;;;;;6.93;1.25;;;10.50;99.90;;;;;;5027109;28;20045;-75
2021/10/12 07:27:38;;;;;;;2.88;1.23;;;10.60;99.90;;;;;;5028332;28;20046;-75
2021/10/12 07:30:04;;;;;;;1.00;0.57;;;10.60;99.90;;;;;;5042745;28;20030;-74
2021/10/12 07:32:30;;;;;;;0.63;0.55;;;10.70;99.90;;;;;;5047982;28;20441;-74
2021/10/12 07:34:56;;;;;;;4.18;0.77;;;10.80;99.90;;;;;;5047003;28;20025;-74
2021/10/12 07:37:21;;;;;;;2.00;0.70;;;10.90;99.90;;;;;;5045996;28;20131;-74
2021/10/12 07:39:47;;;;;;;5.20;0.90;;;11.10;99.90;;;;;;5026746;28;20084;-75
2021/10/12 07:42:13;;;;;;;1.08;0.55;;;11.20;99.90;;;;;;5028743;28;20030;-75
2021/10/12 07:44:40;;;;;;;1.08;0.50;;;11.30;99.90;;;;;;5028035;28;20026;-74
2021/10/12 07:47:10;;;;;;;5.40;0.75;;;11.30;99.90;;;;;;5026674;28;20037;-76
2021/10/12 07:49:36;;;;;;;3.10;0.30;;;11.30;99.90;;;;;;5028409;28;20034;-74
2021/10/12 07:52:07;;;;;;;6.53;1.35;;;11.20;99.90;;;;;;5026398;28;20018;-75
2021/10/12 07:54:48;;;;;;;1.92;0.35;;;11.20;99.90;;;;;;5023605;28;20029;-75
2021/10/12 07:57:16;;;;;;;1.23;0.52;;;11.20;99.90;;;;;;5026598;28;20025;-75
2021/10/12 07:59:44;;;;;;;3.03;0.95;;;11.30;99.90;;;;;;5027609;28;20769;-74
2021/10/12 08:02:12;;;;;;;4.25;0.70;;;11.30;99.90;;;;;;5027117;28;20561;-74
2021/10/12 08:04:41;;;;;;;1.70;0.43;;;11.20;99.90;;;;;;5027565;28;20050;-74
2021/10/12 08:07:08;;;;;;;0.88;0.50;;;11.20;99.90;;;;;;5027375;28;20129;-75
2021/10/12 08:09:34;;;;;;;2.88;0.57;;;11.10;99.90;;;;;;5026902;28;20030;-75
2021/10/12 08:12:02;;;;;;;0.45;0.45;;;11.00;99.90;;;;;;5027067;28;20056;-74
2021/10/12 08:14:39;;;;;;;4.25;0.90;;;11.00;99.90;;;;;;5026096;28;20030;-75
2021/10/12 08:17:07;;;;;;;4.55;0.98;;;11.20;99.90;;;;;;5024667;28;20064;-75
2021/10/12 08:19:33;;;;;;;2.55;0.50;;;11.40;99.90;;;;;;5024998;28;20125;-74
2021/10/12 08:21:59;;;;;;;4.32;0.68;;;11.60;99.90;;;;;;5025812;28;20025;-73
2021/10/12 08:24:29;;;;;;;2.78;0.95;;;11.70;99.90;;;;;;5026629;28;20030;-74
2021/10/12 08:26:55;;;;;;;2.80;0.77;;;11.70;99.90;;;;;;5026575;28;20042;-74
2021/10/12 08:29:20;;;;;;;0.55;0.38;;;11.70;99.90;;;;;;5026292;28;20093;-76
2021/10/12 08:31:47;;;;;;;1.42;0.35;;;11.60;99.90;;;;;;5023672;28;20100;-75
2021/10/12 08:34:16;;;;;;;4.32;0.68;;;11.50;99.90;;;;;;5026752;28;20034;-74
2021/10/12 08:36:42;;;;;;;1.67;0.40;;;11.40;99.90;;;;;;5024068;28;20025;-75
2021/10/12 08:39:08;;;;;;;4.70;0.77;;;11.30;99.90;;;;;;5024676;28;20037;-74
2021/10/12 08:42:13;;;;;;;1.38;0.40;;;11.30;99.90;;;;;;5021522;28;20029;-75
2021/10/12 08:44:55;;;;;;;0.47;0.30;;;11.30;99.90;;;;;;5045819;28;20021;-74
2021/10/12 08:47:26;;;;;;;1.00;0.47;;;11.30;99.90;;;;;;5024698;28;20050;-75
2021/10/12 08:49:54;;;;;;;1.05;0.22;;;11.30;99.90;;;;;;5026273;28;20032;-75
2021/10/12 08:52:22;;;;;;;2.88;0.40;;;11.40;99.90;;;;;;5026436;28;20050;-75
2021/10/12 08:54:49;;;;;;;1.45;0.70;;;11.40;99.90;;;;;;5024696;28;20029;-74
2021/10/12 08:57:38;;;;;;;5.05;0.63;;;11.40;99.90;;;;;;5022497;28;20033;-73
2021/10/12 09:00:28;;;;;;;5.00;1.10;;;11.40;99.90;;;;;;5023342;28;20037;-75
2021/10/12 09:03:26;;;;;;;6.13;0.68;;;11.40;99.90;;;;;;5017596;28;20026;-75
2021/10/12 09:05:56;;;;;;;1.70;0.45;;;11.40;99.90;;;;;;5021363;28;20375;-75
2021/10/12 09:08:35;;;;;;;0.80;0.38;;;11.50;99.90;;;;;;5025185;28;20072;-75
2021/10/12 09:11:04;;;;;;;3.45;0.50;;;11.60;99.90;;;;;;5025860;28;20504;-74
2021/10/12 09:13:46;;;;;;;0.20;0.20;;;11.60;99.90;;;;;;5026825;28;20026;-74
2021/10/12 09:16:15;;;;;;;4.22;0.85;;;11.70;99.90;;;;;;5025259;28;20030;-74
2021/10/12 09:18:55;;;;;;;0.80;0.47;;;11.80;99.90;;;;;;5025841;28;20026;-72
2021/10/12 09:21:26;;;;;;;2.30;1.00;;;11.90;99.90;;;;;;5026590;28;20414;-73
2021/10/12 09:24:02;;;;;;;1.75;0.32;;;12.00;99.90;;;;;;5025270;28;20112;-76
2021/10/12 09:26:34;;;;;;;2.10;0.43;;;12.00;99.90;;;;;;5016649;28;20026;-71
2021/10/12 09:29:06;;;;;;;9.88;0.80;;;12.00;99.90;;;;;;5006465;28;20080;-71
2021/10/12 09:31:41;;;;;;;2.95;0.68;;;12.00;99.90;;;;;;5004122;28;20495;-73
2021/10/12 09:34:08;;;;;;;2.15;0.50;;;12.00;99.90;;;;;;5006689;28;20031;-73
2021/10/12 09:36:41;;;;;;;1.27;0.45;;;12.10;99.90;;;;;;5006351;28;20014;-73
2021/10/12 09:39:14;;;;;;;2.17;0.50;;;12.00;99.90;;;;;;5006332;28;20054;-74
2021/10/12 09:41:42;;;;;;;1.17;0.50;;;12.00;99.90;;;;;;5005131;28;20129;-75
2021/10/12 09:44:17;;;;;;;0.60;0.10;;;12.10;99.90;;;;;;5004830;28;20282;-74
2021/10/12 09:46:51;;;;;;;5.43;0.47;;;12.10;99.90;;;;;;5005033;28;20030;-74
2021/10/12 09:49:21;;;;;;;5.15;0.60;;;12.30;99.90;;;;;;5005321;28;20041;-74
2021/10/12 09:52:12;;;;;;;3.25;0.45;;;12.50;99.90;;;;;;5020104;28;20116;-75
2021/10/12 09:54:46;;;;;;;1.00;0.10;;;12.60;99.90;;;;;;5022102;28;20092;-74
2021/10/12 09:57:13;;;;;;;0.95;0.40;;;12.60;99.90;;;;;;5019842;28;20034;-73
2021/10/12 09:59:40;;;;;;;0.70;0.30;;;12.80;99.90;;;;;;5025420;28;20034;-75
2021/10/12 10:02:08;;;;;;;1.10;0.45;;;12.90;99.90;;;;;;5024294;28;20026;-73
2021/10/12 10:04:37;;;;;;;0.60;0.20;;;13.10;99.90;;;;;;5024457;28;20084;-74
2021/10/12 10:07:05;;;;;;;0.10;0.08;;;13.30;99.90;;;;;;5023351;28;20557;-74
2021/10/12 10:09:35;;;;;;;0.47;0.28;;;13.50;99.90;;;;;;5025723;28;20036;-74
2021/10/12 10:12:08;;;;;;;0.30;0.13;;;13.60;99.90;;;;;;5025460;28;20026;-75
2021/10/12 10:14:34;;;;;;;3.75;0.80;;;13.60;99.90;;;;;;5023130;28;20033;-73
2021/10/12 10:17:00;;;;;;;2.20;0.40;;;13.60;99.90;;;;;;5023927;28;20033;-74
2021/10/12 10:19:33;;;;;;;1.40;0.40;;;13.60;99.90;;;;;;5034081;28;20025;-74
2021/10/12 10:22:37;;;;;;;4.43;0.43;;;13.60;99.90;;;;;;5032991;28;20048;-76
2021/10/12 10:25:34;;;;;;;2.83;0.43;;;13.50;99.90;;;;;;5024940;28;20033;-76
2021/10/12 10:28:25;;;;;;;3.13;0.57;;;13.50;99.90;;;;;;5022233;28;20045;-76
2021/10/12 10:30:52;;;;;;;1.70;0.47;;;13.50;99.90;;;;;;5019861;28;20144;-76
2021/10/12 10:33:37;;;;;;;5.88;0.90;;;13.50;99.90;;;;;;5023734;28;20053;-74
2021/10/12 10:36:10;;;;;;;5.20;0.52;;;13.60;99.90;;;;;;5019457;28;20021;-75
2021/10/12 10:38:48;;;;;;;8.20;0.75;;;13.60;99.90;;;;;;5024251;28;20026;-75
2021/10/12 10:41:22;;;;;;;4.50;1.23;;;13.40;99.90;;;;;;5022953;28;20036;-76
2021/10/12 10:43:50;;;;;;;;;;;13.20;99.90;;;;;;5022513;28;20049;-76
2021/10/12 10:46:32;;;;;;;11.25;1.10;;;13.10;99.90;;;;;;5023869;28;19905;-75
2021/10/12 10:49:24;;;;;;;4.95;0.52;;;12.90;99.90;;;;;;5023198;28;20096;-74
2021/10/12 10:52:07;;;;;;;3.25;0.65;;;12.80;99.90;;;;;;5031603;28;20056;-75
2021/10/12 10:54:39;;;;;;;1.48;0.30;;;12.80;99.90;;;;;;5022096;28;20038;-75
2021/10/12 10:57:15;;;;;;;2.30;0.40;;;12.80;99.90;;;;;;5029588;28;20032;-75
2021/10/12 10:59:41;;;;;;;0.75;0.43;;;12.90;99.90;;;;;;5024887;28;20022;-75
2021/10/12 11:02:25;;;;;;;2.05;0.40;;;13.00;99.90;;;;;;5020041;28;20061;-76
2021/10/12 11:04:52;;;;;;;0.25;0.22;;;13.10;99.90;;;;;;5022255;28;20040;-75
2021/10/12 11:07:24;;;;;;;0.70;0.32;;;13.30;99.90;;;;;;5022992;28;20034;-76
2021/10/12 11:09:52;;;;;;;3.35;0.70;;;13.60;99.90;;;;;;5022040;28;20114;-76
2021/10/12 11:12:19;;;;;;;1.38;0.50;;;13.80;99.90;;;;;;5023699;28;20021;-75
2021/10/12 11:14:46;;;;;;;2.65;0.55;;;14.10;99.90;;;;;;5022054;28;20053;-77
2021/10/12 11:17:11;;;;;;;1.25;0.22;;;14.40;99.90;;;;;;5021413;28;20136;-74
2021/10/12 11:19:56;;;;;;;0.95;0.40;;;14.70;99.90;;;;;;5023287;28;20045;-74
2021/10/12 11:22:23;;;;;;;1.45;0.35;;;15.00;99.90;;;;;;5023549;28;20113;-76
2021/10/12 11:24:50;;;;;;;4.38;1.02;;;15.30;99.90;;;;;;5023556;28;20026;-75
2021/10/12 11:27:16;;;;;;;0.50;0.30;;;15.40;99.90;;;;;;5022554;28;20041;-77
2021/10/12 11:29:43;;;;;;;0.47;0.22;;;15.80;99.90;;;;;;5022113;28;20034;-75
2021/10/12 11:32:08;;;;;;;0.95;0.47;;;15.90;99.90;;;;;;5021542;28;20046;-75
2021/10/12 11:34:34;;;;;;;0.73;0.25;;;15.60;99.90;;;;;;5022381;28;20029;-75
2021/10/12 11:37:08;;;;;;;0.35;0.28;;;15.20;99.90;;;;;;5024239;28;20030;-74
2021/10/12 11:39:37;;;;;;;9.10;0.93;;;14.90;99.90;;;;;;5022533;28;20025;-73
2021/10/12 11:42:04;;;;;;;0.30;0.30;;;14.60;99.90;;;;;;5021353;28;20026;-74
2021/10/12 11:44:30;;;;;;;7.45;0.82;;;14.50;99.90;;;;;;5023300;28;20045;-75
2021/10/12 11:47:05;;;;;;;1.23;0.68;;;14.60;99.90;;;;;;5023622;28;20038;-73
2021/10/12 11:49:41;;;;;;;0.47;0.20;;;15.00;99.90;;;;;;5021284;28;20033;-74
2021/10/12 11:52:09;;;;;;;1.42;0.68;;;15.50;99.90;;;;;;5023435;28;20053;-72
2021/10/12 11:54:35;;;;;;;2.35;0.43;;;15.70;99.90;;;;;;5022460;28;20030;-75
2021/10/12 11:57:02;;;;;;;1.60;0.20;;;15.60;99.90;;;;;;5025735;28;20032;-74
2021/10/12 11:59:36;;;;;;;0.73;0.28;;;15.30;99.90;;;;;;5031066;28;20272;-74
2021/10/12 12:02:09;;;;;;;2.13;0.30;;;15.00;99.90;;;;;;5046425;28;20382;-73
2021/10/12 12:04:35;;;;;;;0.35;0.13;;;14.80;99.90;;;;;;5046362;28;20041;-72
2021/10/12 12:07:05;;;;;;;0.17;0.10;;;14.50;99.90;;;;;;5045475;28;20068;-71
2021/10/12 12:09:32;;;;;;;2.47;0.57;;;13.90;99.90;;;;;;5046132;28;20026;-71
2021/10/12 12:12:02;;;;;;;0.15;0.15;;;13.50;99.90;;;;;;5034794;28;20084;-72
2021/10/12 12:14:28;;;;;;;7.90;0.40;;;13.30;99.90;;;;;;5006424;28;20065;-70
2021/10/12 12:17:19;;;;;;;0.00;0.00;;;13.20;99.90;;;;;;5008848;28;20084;-71
2021/10/12 12:19:49;;;;;;;1.67;0.35;;;13.10;99.90;;;;;;5026228;28;20018;-72
2021/10/12 12:22:27;;;;;;;1.70;0.13;;;13.00;99.90;;;;;;5025904;28;20025;-72
2021/10/12 12:25:00;;;;;;;0.80;0.35;;;13.00;99.90;;;;;;5025287;28;20093;-71
2021/10/12 12:27:33;;;;;;;2.13;0.50;;;13.00;99.90;;;;;;5024826;28;20041;-72
2021/10/12 12:30:08;;;;;;;1.13;0.10;;;12.90;99.90;;;;;;5022568;28;20022;-72
2021/10/12 12:32:35;;;;;;;0.13;0.10;;;12.90;99.90;;;;;;5022514;28;20038;-72
2021/10/12 12:35:08;;;;;;;0.68;0.30;;;12.80;99.90;;;;;;5025198;28;20477;-72
2021/10/12 12:37:34;;;;;;;0.35;0.22;;;12.80;99.90;;;;;;5005910;28;20029;-71
2021/10/12 12:39:59;;;;;;;0.52;0.17;;;12.80;99.90;;;;;;5005437;28;20060;-71
2021/10/12 12:42:35;;;;;;;0.05;0.05;;;12.80;99.90;;;;;;5004490;28;20026;-72
2021/10/12 12:45:10;;;;;;;0.90;0.30;;;12.90;99.90;;;;;;5007045;28;20045;-74
2021/10/12 12:47:36;;;;;;;2.67;0.50;;;13.20;99.90;;;;;;5021575;28;20034;-71
2021/10/12 12:50:11;;;;;;;1.10;0.30;;;13.60;99.90;;;;;;5024345;28;20041;-72
2021/10/12 12:52:38;;;;;;;0.10;0.10;;;14.10;99.90;;;;;;5024462;28;20041;-71
2021/10/12 12:55:30;;;;;;;2.13;0.30;;;14.60;99.90;;;;;;5024621;28;20077;-71
2021/10/12 12:57:56;;;;;;;0.75;0.10;;;14.90;99.90;;;;;;5024887;28;20029;-73
2021/10/12 13:00:25;;;;;;;0.50;0.28;;;15.20;99.90;;;;;;5024798;28;20034;-72